aviador You're here:

KMCX Decoded Metar

in
Report Time2018-07-21 08:15:00
UTC Time2018-07-21 08:12:59
Flight Rules vfr VFR
Wind230° at 06 kt
W.Decomp.*RWY 18: 3.9 kt HW 4.6 kt RCW
W.Rank230° ranks 9
Current wind is below 230° avg. (8.5)
Visibility9999 m
Phenomena:N/A
Clouds:Broken 033 Hf
Broken 043 Hf
Expected CloudBase > 400 ft AGL from Temp-Dew spread
Ceiling3,300 ft
Temp20°C
Dew Point19°C (94% RH)
QNH1005 hPa
Raw Report
KMCX 210815Z AUTO 23006KT 10SM BKN033 BKN043 20/19 A2967 RMK AO2
T01950187=

Extra information for KMCX:More info

Social comments